SJJ weather

Sarajevo International Airport
Sarajevo, Federacija Bosna i Hercegovina, Bosnia and Herzegovina

Public forecast

Using degrees Celsius for public forecast. Weather courtesy of forecast.io.

METAR (pilot weather report)

Retrieved 2019/05/19 22:00 UTC (5 minutes ago):

LQSA 192200Z VRB01KT 8000 BKN050 11/10 Q1007

TAF (pilot weather forecast)

Retrieved 2019/05/19 18:06 UTC (4 hours ago):

TAF LQSA 191700Z 1918/2018 15006KT 9999 SCT050 TX18/2013Z TN07/2004Z TEMPO 2008/2015 22013KT PROB40 TEMPO 2011/2015 SHRA FEW035TCU SCT045